sensor_id;sensor_type;location;lat;lon;timestamp;temperature;humidity
49901;DHT22;35789;48.414;12.768;2022-09-03T00:00:03;11.0;99.9
49901;DHT22;35789;48.414;12.768;2022-09-03T00:05:02;11.0;99.9
49901;DHT22;35789;48.414;12.768;2022-09-03T00:10:01;10.9;99.9
49901;DHT22;35789;48.414;12.768;2022-09-03T00:15:00;10.8;99.9
49901;DHT22;35789;48.414;12.768;2022-09-03T00:20:00;10.7;99.9
49901;DHT22;35789;48.414;12.768;2022-09-03T00:25:01;10.7;99.9
49901;DHT22;35789;48.414;12.768;2022-09-03T00:30:00;10.7;99.9
49901;DHT22;35789;48.414;12.768;2022-09-03T00:35:01;10.7;99.9
49901;DHT22;35789;48.414;12.768;2022-09-03T00:40:00;10.8;99.9
49901;DHT22;35789;48.414;12.768;2022-09-03T00:45:03;10.9;99.9
49901;DHT22;35789;48.414;12.768;2022-09-03T00:50:02;10.8;99.9
49901;DHT22;35789;48.414;12.768;2022-09-03T00:55:02;10.6;99.9
49901;DHT22;35789;48.414;12.768;2022-09-03T01:00:03;10.6;99.9
49901;DHT22;35789;48.414;12.768;2022-09-03T01:05:01;10.6;99.9
49901;DHT22;35789;48.414;12.768;2022-09-03T01:10:03;10.5;99.9
49901;DHT22;35789;48.414;12.768;2022-09-03T01:15:02;10.5;99.9
49901;DHT22;35789;48.414;12.768;2022-09-03T01:20:02;10.5;99.9
49901;DHT22;35789;48.414;12.768;2022-09-03T01:25:05;10.5;99.9
49901;DHT22;35789;48.414;12.768;2022-09-03T01:30:02;10.4;99.9
49901;DHT22;35789;48.414;12.768;2022-09-03T01:35:01;10.1;99.9
49901;DHT22;35789;48.414;12.768;2022-09-03T01:40:01;10.2;99.9
49901;DHT22;35789;48.414;12.768;2022-09-03T01:45:02;10.1;99.9
49901;DHT22;35789;48.414;12.768;2022-09-03T01:50:02;10.3;99.9
49901;DHT22;35789;48.414;12.768;2022-09-03T01:55:03;10.1;99.9
49901;DHT22;35789;48.414;12.768;2022-09-03T02:00:00;10.1;99.9
49901;DHT22;35789;48.414;12.768;2022-09-03T02:05:01;10.0;99.9
49901;DHT22;35789;48.414;12.768;2022-09-03T02:10:00;10.2;99.9
49901;DHT22;35789;48.414;12.768;2022-09-03T02:15:00;10.1;99.9
49901;DHT22;35789;48.414;12.768;2022-09-03T02:20:01;10.0;99.9
49901;DHT22;35789;48.414;12.768;2022-09-03T02:25:00;10.0;99.9
49901;DHT22;35789;48.414;12.768;2022-09-03T02:30:00;10.0;99.9
49901;DHT22;35789;48.414;12.768;2022-09-03T02:35:00;9.9;99.9
49901;DHT22;35789;48.414;12.768;2022-09-03T02:40:00;10.1;99.9
49901;DHT22;35789;48.414;12.768;2022-09-03T02:45:03;10.0;99.9
49901;DHT22;35789;48.414;12.768;2022-09-03T02:50:00;10.2;99.9
49901;DHT22;35789;48.414;12.768;2022-09-03T02:55:00;10.1;99.9
49901;DHT22;35789;48.414;12.768;2022-09-03T03:00:00;10.3;99.9
49901;DHT22;35789;48.414;12.768;2022-09-03T03:05:00;10.2;99.9
49901;DHT22;35789;48.414;12.768;2022-09-03T03:10:00;10.3;99.9
49901;DHT22;35789;48.414;12.768;2022-09-03T03:15:00;10.3;99.9
49901;DHT22;35789;48.414;12.768;2022-09-03T03:20:00;10.4;99.9
49901;DHT22;35789;48.414;12.768;2022-09-03T03:25:00;10.4;99.9
49901;DHT22;35789;48.414;12.768;2022-09-03T03:30:00;10.4;99.9
49901;DHT22;35789;48.414;12.768;2022-09-03T03:35:00;10.3;99.9
49901;DHT22;35789;48.414;12.768;2022-09-03T03:40:00;10.5;99.9
49901;DHT22;35789;48.414;12.768;2022-09-03T03:45:00;10.4;99.9
49901;DHT22;35789;48.414;12.768;2022-09-03T03:50:00;10.6;99.9
49901;DHT22;35789;48.414;12.768;2022-09-03T03:55:00;10.5;99.9
49901;DHT22;35789;48.414;12.768;2022-09-03T04:00:00;10.6;99.9
49901;DHT22;35789;48.414;12.768;2022-09-03T04:05:00;10.8;99.9
49901;DHT22;35789;48.414;12.768;2022-09-03T04:10:00;10.8;99.9
49901;DHT22;35789;48.414;12.768;2022-09-03T04:15:00;10.9;99.9
49901;DHT22;35789;48.414;12.768;2022-09-03T04:20:00;10.8;99.9
49901;DHT22;35789;48.414;12.768;2022-09-03T04:25:00;10.8;99.9
49901;DHT22;35789;48.414;12.768;2022-09-03T04:30:00;10.8;99.9
49901;DHT22;35789;48.414;12.768;2022-09-03T04:35:00;10.7;99.9
49901;DHT22;35789;48.414;12.768;2022-09-03T04:40:00;10.9;99.9
49901;DHT22;35789;48.414;12.768;2022-09-03T04:45:00;10.9;99.9
49901;DHT22;35789;48.414;12.768;2022-09-03T04:50:00;11.0;99.9
49901;DHT22;35789;48.414;12.768;2022-09-03T04:55:00;11.0;99.9
49901;DHT22;35789;48.414;12.768;2022-09-03T05:00:00;11.0;99.9
49901;DHT22;35789;48.414;12.768;2022-09-03T05:05:00;11.0;99.9
49901;DHT22;35789;48.414;12.768;2022-09-03T05:10:00;10.9;99.9
49901;DHT22;35789;48.414;12.768;2022-09-03T05:15:00;11.0;99.9
49901;DHT22;35789;48.414;12.768;2022-09-03T05:20:00;11.1;99.9
49901;DHT22;35789;48.414;12.768;2022-09-03T05:25:00;11.1;99.9
49901;DHT22;35789;48.414;12.768;2022-09-03T05:30:00;11.1;99.9
49901;DHT22;35789;48.414;12.768;2022-09-03T05:35:00;11.2;99.9
49901;DHT22;35789;48.414;12.768;2022-09-03T05:40:00;11.2;99.9
49901;DHT22;35789;48.414;12.768;2022-09-03T05:45:00;11.2;99.9
49901;DHT22;35789;48.414;12.768;2022-09-03T05:50:00;11.2;99.9
49901;DHT22;35789;48.414;12.768;2022-09-03T05:55:00;11.3;99.9
49901;DHT22;35789;48.414;12.768;2022-09-03T06:00:00;11.4;99.9
49901;DHT22;35789;48.414;12.768;2022-09-03T06:05:00;11.4;99.9
49901;DHT22;35789;48.414;12.768;2022-09-03T06:10:00;11.5;99.9
49901;DHT22;35789;48.414;12.768;2022-09-03T06:15:00;11.6;99.9
49901;DHT22;35789;48.414;12.768;2022-09-03T06:20:00;11.7;99.9
49901;DHT22;35789;48.414;12.768;2022-09-03T06:25:00;11.8;99.9
49901;DHT22;35789;48.414;12.768;2022-09-03T06:30:00;11.9;99.9
49901;DHT22;35789;48.414;12.768;2022-09-03T06:35:00;12.1;99.9
49901;DHT22;35789;48.414;12.768;2022-09-03T06:40:00;12.2;99.9
49901;DHT22;35789;48.414;12.768;2022-09-03T06:45:00;12.4;99.9
49901;DHT22;35789;48.414;12.768;2022-09-03T06:50:00;12.5;99.9
49901;DHT22;35789;48.414;12.768;2022-09-03T06:55:00;12.7;99.9
49901;DHT22;35789;48.414;12.768;2022-09-03T07:00:00;12.9;99.9
49901;DHT22;35789;48.414;12.768;2022-09-03T07:05:00;13.0;99.9
49901;DHT22;35789;48.414;12.768;2022-09-03T07:10:00;13.2;99.9
49901;DHT22;35789;48.414;12.768;2022-09-03T07:15:00;13.4;99.9
49901;DHT22;35789;48.414;12.768;2022-09-03T07:20:00;13.5;99.9
49901;DHT22;35789;48.414;12.768;2022-09-03T07:25:00;13.6;99.9
49901;DHT22;35789;48.414;12.768;2022-09-03T07:30:00;13.6;99.9
49901;DHT22;35789;48.414;12.768;2022-09-03T07:35:00;13.7;99.9
49901;DHT22;35789;48.414;12.768;2022-09-03T07:40:00;13.7;99.9
49901;DHT22;35789;48.414;12.768;2022-09-03T07:45:00;14.1;99.9
49901;DHT22;35789;48.414;12.768;2022-09-03T07:50:00;14.4;99.9
49901;DHT22;35789;48.414;12.768;2022-09-03T07:55:00;14.8;99.9
49901;DHT22;35789;48.414;12.768;2022-09-03T08:00:00;15.0;99.9
49901;DHT22;35789;48.414;12.768;2022-09-03T08:05:00;15.1;99.9
49901;DHT22;35789;48.414;12.768;2022-09-03T08:10:00;15.1;99.9
49901;DHT22;35789;48.414;12.768;2022-09-03T08:15:00;15.2;99.9
49901;DHT22;35789;48.414;12.768;2022-09-03T08:20:00;15.4;99.9
49901;DHT22;35789;48.414;12.768;2022-09-03T08:25:00;15.5;99.9
49901;DHT22;35789;48.414;12.768;2022-09-03T08:30:00;15.7;99.9
49901;DHT22;35789;48.414;12.768;2022-09-03T08:35:00;15.7;99.9
49901;DHT22;35789;48.414;12.768;2022-09-03T08:40:00;15.9;99.9
49901;DHT22;35789;48.414;12.768;2022-09-03T08:45:00;16.1;99.9
49901;DHT22;35789;48.414;12.768;2022-09-03T08:50:00;16.3;99.9
49901;DHT22;35789;48.414;12.768;2022-09-03T08:55:02;16.3;99.9
49901;DHT22;35789;48.414;12.768;2022-09-03T09:00:00;16.3;99.9
49901;DHT22;35789;48.414;12.768;2022-09-03T09:05:01;16.3;99.9
49901;DHT22;35789;48.414;12.768;2022-09-03T09:10:02;16.5;99.9
49901;DHT22;35789;48.414;12.768;2022-09-03T09:15:03;16.8;99.9
49901;DHT22;35789;48.414;12.768;2022-09-03T09:20:04;17.4;99.9
49901;DHT22;35789;48.414;12.768;2022-09-03T09:25:00;17.7;99.9
49901;DHT22;35789;48.414;12.768;2022-09-03T09:30:00;18.2;99.9
49901;DHT22;35789;48.414;12.768;2022-09-03T09:35:00;18.4;99.9
49901;DHT22;35789;48.414;12.768;2022-09-03T09:40:00;18.6;99.9
49901;DHT22;35789;48.414;12.768;2022-09-03T09:45:07;18.7;98.9
49901;DHT22;35789;48.414;12.768;2022-09-03T09:50:00;18.7;99.3
49901;DHT22;35789;48.414;12.768;2022-09-03T09:55:05;18.8;98.9
49901;DHT22;35789;48.414;12.768;2022-09-03T10:00:03;19.0;97.6
49901;DHT22;35789;48.414;12.768;2022-09-03T10:05:00;19.1;99.1
49901;DHT22;35789;48.414;12.768;2022-09-03T10:10:00;19.2;98.8
49901;DHT22;35789;48.414;12.768;2022-09-03T10:15:02;19.5;97.1
49901;DHT22;35789;48.414;12.768;2022-09-03T10:20:03;19.5;96.5
49901;DHT22;35789;48.414;12.768;2022-09-03T10:25:01;19.4;98.0
49901;DHT22;35789;48.414;12.768;2022-09-03T10:30:00;19.4;99.0
49901;DHT22;35789;48.414;12.768;2022-09-03T10:35:02;19.4;97.4
49901;DHT22;35789;48.414;12.768;2022-09-03T10:40:05;19.3;98.3
49901;DHT22;35789;48.414;12.768;2022-09-03T10:45:02;19.2;97.9
49901;DHT22;35789;48.414;12.768;2022-09-03T10:50:02;19.5;96.4
49901;DHT22;35789;48.414;12.768;2022-09-03T10:55:05;19.9;97.1
49901;DHT22;35789;48.414;12.768;2022-09-03T11:00:03;20.0;95.9
49901;DHT22;35789;48.414;12.768;2022-09-03T11:05:01;19.8;96.3
49901;DHT22;35789;48.414;12.768;2022-09-03T11:10:03;19.8;96.6
49901;DHT22;35789;48.414;12.768;2022-09-03T11:15:01;19.9;97.7
49901;DHT22;35789;48.414;12.768;2022-09-03T11:20:03;20.1;95.7
49901;DHT22;35789;48.414;12.768;2022-09-03T11:25:00;20.1;95.7
49901;DHT22;35789;48.414;12.768;2022-09-03T11:30:01;20.0;97.3
49901;DHT22;35789;48.414;12.768;2022-09-03T11:35:00;20.2;98.1
49901;DHT22;35789;48.414;12.768;2022-09-03T11:40:03;20.6;96.1
49901;DHT22;35789;48.414;12.768;2022-09-03T11:50:03;20.9;96.0
49901;DHT22;35789;48.414;12.768;2022-09-03T11:55:00;20.9;95.1
49901;DHT22;35789;48.414;12.768;2022-09-03T12:00:08;20.9;95.5
49901;DHT22;35789;48.414;12.768;2022-09-03T12:05:05;20.9;96.6
49901;DHT22;35789;48.414;12.768;2022-09-03T12:10:02;20.8;95.4
49901;DHT22;35789;48.414;12.768;2022-09-03T12:15:02;20.9;96.3
49901;DHT22;35789;48.414;12.768;2022-09-03T12:20:00;21.1;96.8
49901;DHT22;35789;48.414;12.768;2022-09-03T12:25:06;20.9;94.4
49901;DHT22;35789;48.414;12.768;2022-09-03T12:30:01;20.8;95.4
49901;DHT22;35789;48.414;12.768;2022-09-03T12:35:09;21.1;96.4
49901;DHT22;35789;48.414;12.768;2022-09-03T12:40:00;21.4;95.6
49901;DHT22;35789;48.414;12.768;2022-09-03T12:45:04;21.3;94.5
49901;DHT22;35789;48.414;12.768;2022-09-03T12:50:04;21.5;95.0
49901;DHT22;35789;48.414;12.768;2022-09-03T12:55:01;21.6;93.4
49901;DHT22;35789;48.414;12.768;2022-09-03T13:00:03;21.6;94.9
49901;DHT22;35789;48.414;12.768;2022-09-03T13:05:00;21.7;95.3
49901;DHT22;35789;48.414;12.768;2022-09-03T13:10:01;21.8;94.4
49901;DHT22;35789;48.414;12.768;2022-09-03T13:15:06;21.5;95.8
49901;DHT22;35789;48.414;12.768;2022-09-03T13:20:07;21.7;94.6
49901;DHT22;35789;48.414;12.768;2022-09-03T13:25:02;21.4;95.4
49901;DHT22;35789;48.414;12.768;2022-09-03T13:30:02;21.2;94.0
49901;DHT22;35789;48.414;12.768;2022-09-03T13:35:05;21.4;95.5
49901;DHT22;35789;48.414;12.768;2022-09-03T13:40:02;22.0;93.1
49901;DHT22;35789;48.414;12.768;2022-09-03T13:45:01;21.9;94.0
49901;DHT22;35789;48.414;12.768;2022-09-03T13:50:01;22.0;93.9
49901;DHT22;35789;48.414;12.768;2022-09-03T13:55:00;22.1;94.1
49901;DHT22;35789;48.414;12.768;2022-09-03T14:00:01;22.3;93.3
49901;DHT22;35789;48.414;12.768;2022-09-03T14:05:02;22.3;92.9
49901;DHT22;35789;48.414;12.768;2022-09-03T14:10:03;22.2;93.4
49901;DHT22;35789;48.414;12.768;2022-09-03T14:15:00;22.1;94.3
49901;DHT22;35789;48.414;12.768;2022-09-03T14:20:01;22.0;94.7
49901;DHT22;35789;48.414;12.768;2022-09-03T14:25:02;21.9;95.5
49901;DHT22;35789;48.414;12.768;2022-09-03T14:30:00;21.8;95.2
49901;DHT22;35789;48.414;12.768;2022-09-03T14:40:02;21.9;93.8
49901;DHT22;35789;48.414;12.768;2022-09-03T14:45:07;22.0;93.0
49901;DHT22;35789;48.414;12.768;2022-09-03T14:50:02;22.3;93.1
49901;DHT22;35789;48.414;12.768;2022-09-03T14:55:04;22.2;93.3
49901;DHT22;35789;48.414;12.768;2022-09-03T15:00:02;22.0;94.4
49901;DHT22;35789;48.414;12.768;2022-09-03T15:05:05;21.7;94.3
49901;DHT22;35789;48.414;12.768;2022-09-03T15:10:02;21.5;94.5
49901;DHT22;35789;48.414;12.768;2022-09-03T15:15:01;21.4;93.3
49901;DHT22;35789;48.414;12.768;2022-09-03T15:20:06;21.1;94.4
49901;DHT22;35789;48.414;12.768;2022-09-03T15:25:03;20.9;94.6
49901;DHT22;35789;48.414;12.768;2022-09-03T15:30:03;20.7;95.2
49901;DHT22;35789;48.414;12.768;2022-09-03T15:35:03;20.5;95.4
49901;DHT22;35789;48.414;12.768;2022-09-03T15:40:02;20.5;95.6
49901;DHT22;35789;48.414;12.768;2022-09-03T15:45:02;20.6;96.3
49901;DHT22;35789;48.414;12.768;2022-09-03T15:50:00;20.6;97.8
49901;DHT22;35789;48.414;12.768;2022-09-03T15:55:01;20.5;97.7
49901;DHT22;35789;48.414;12.768;2022-09-03T16:00:00;20.5;98.3
49901;DHT22;35789;48.414;12.768;2022-09-03T16:05:02;20.4;96.9
49901;DHT22;35789;48.414;12.768;2022-09-03T16:10:03;20.3;97.2
49901;DHT22;35789;48.414;12.768;2022-09-03T16:15:01;20.2;98.5
49901;DHT22;35789;48.414;12.768;2022-09-03T16:20:02;20.0;97.3
49901;DHT22;35789;48.414;12.768;2022-09-03T16:25:00;19.9;98.1
49901;DHT22;35789;48.414;12.768;2022-09-03T16:30:02;19.8;98.6
49901;DHT22;35789;48.414;12.768;2022-09-03T16:35:03;19.8;98.2
49901;DHT22;35789;48.414;12.768;2022-09-03T16:40:02;19.7;98.7
49901;DHT22;35789;48.414;12.768;2022-09-03T16:45:04;19.6;98.9
49901;DHT22;35789;48.414;12.768;2022-09-03T16:50:03;19.5;99.9
49901;DHT22;35789;48.414;12.768;2022-09-03T16:55:03;19.4;99.9
49901;DHT22;35789;48.414;12.768;2022-09-03T17:00:05;19.3;99.9
49901;DHT22;35789;48.414;12.768;2022-09-03T17:05:02;19.2;99.9
49901;DHT22;35789;48.414;12.768;2022-09-03T17:10:02;19.2;99.9
49901;DHT22;35789;48.414;12.768;2022-09-03T17:15:06;19.2;99.9
49901;DHT22;35789;48.414;12.768;2022-09-03T17:20:00;19.0;99.9
49901;DHT22;35789;48.414;12.768;2022-09-03T17:25:00;19.0;99.9
49901;DHT22;35789;48.414;12.768;2022-09-03T17:30:03;18.9;99.9
49901;DHT22;35789;48.414;12.768;2022-09-03T17:35:05;18.5;99.9
49901;DHT22;35789;48.414;12.768;2022-09-03T17:40:02;18.2;99.9
49901;DHT22;35789;48.414;12.768;2022-09-03T17:45:04;17.7;99.9
49901;DHT22;35789;48.414;12.768;2022-09-03T17:50:04;17.4;99.9
49901;DHT22;35789;48.414;12.768;2022-09-03T17:55:01;17.3;99.9
49901;DHT22;35789;48.414;12.768;2022-09-03T18:00:00;17.0;99.9
49901;DHT22;35789;48.414;12.768;2022-09-03T18:05:02;17.1;99.9
49901;DHT22;35789;48.414;12.768;2022-09-03T18:10:03;17.2;99.9
49901;DHT22;35789;48.414;12.768;2022-09-03T18:15:03;17.0;99.9
49901;DHT22;35789;48.414;12.768;2022-09-03T18:20:02;16.9;99.9
49901;DHT22;35789;48.414;12.768;2022-09-03T18:25:00;16.7;99.9
49901;DHT22;35789;48.414;12.768;2022-09-03T18:30:00;16.5;99.9
49901;DHT22;35789;48.414;12.768;2022-09-03T18:35:00;16.5;99.9
49901;DHT22;35789;48.414;12.768;2022-09-03T18:40:00;16.4;99.9
49901;DHT22;35789;48.414;12.768;2022-09-03T18:45:02;16.3;99.9
49901;DHT22;35789;48.414;12.768;2022-09-03T18:50:03;16.2;99.9
49901;DHT22;35789;48.414;12.768;2022-09-03T18:55:00;16.2;99.9
49901;DHT22;35789;48.414;12.768;2022-09-03T19:00:03;16.0;99.9
49901;DHT22;35789;48.414;12.768;2022-09-03T19:05:03;16.0;99.9
49901;DHT22;35789;48.414;12.768;2022-09-03T19:10:01;15.9;99.9
49901;DHT22;35789;48.414;12.768;2022-09-03T19:15:01;15.8;99.9
49901;DHT22;35789;48.414;12.768;2022-09-03T19:20:02;15.7;99.9
49901;DHT22;35789;48.414;12.768;2022-09-03T19:25:02;15.7;99.9
49901;DHT22;35789;48.414;12.768;2022-09-03T19:30:02;15.6;99.9
49901;DHT22;35789;48.414;12.768;2022-09-03T19:35:04;15.6;99.9
49901;DHT22;35789;48.414;12.768;2022-09-03T19:40:05;15.5;99.9
49901;DHT22;35789;48.414;12.768;2022-09-03T19:45:02;15.5;99.9
49901;DHT22;35789;48.414;12.768;2022-09-03T19:50:02;15.5;99.9
49901;DHT22;35789;48.414;12.768;2022-09-03T19:55:00;15.5;99.9
49901;DHT22;35789;48.414;12.768;2022-09-03T20:00:00;15.4;99.9
49901;DHT22;35789;48.414;12.768;2022-09-03T20:05:00;15.5;99.9
49901;DHT22;35789;48.414;12.768;2022-09-03T20:10:01;15.6;99.9
49901;DHT22;35789;48.414;12.768;2022-09-03T20:15:01;15.5;99.9
49901;DHT22;35789;48.414;12.768;2022-09-03T20:20:06;15.5;99.9
49901;DHT22;35789;48.414;12.768;2022-09-03T20:25:07;15.3;99.9
49901;DHT22;35789;48.414;12.768;2022-09-03T20:30:00;15.3;99.9
49901;DHT22;35789;48.414;12.768;2022-09-03T20:35:01;15.1;99.9
49901;DHT22;35789;48.414;12.768;2022-09-03T20:40:06;15.1;99.9
49901;DHT22;35789;48.414;12.768;2022-09-03T20:45:01;15.0;99.9
49901;DHT22;35789;48.414;12.768;2022-09-03T20:50:02;14.9;99.9
49901;DHT22;35789;48.414;12.768;2022-09-03T20:55:03;14.8;99.9
49901;DHT22;35789;48.414;12.768;2022-09-03T21:00:03;14.7;99.9
49901;DHT22;35789;48.414;12.768;2022-09-03T21:05:02;14.6;99.9
49901;DHT22;35789;48.414;12.768;2022-09-03T21:10:02;14.5;99.9
49901;DHT22;35789;48.414;12.768;2022-09-03T21:15:02;14.3;99.9
49901;DHT22;35789;48.414;12.768;2022-09-03T21:20:02;14.3;99.9
49901;DHT22;35789;48.414;12.768;2022-09-03T21:25:00;14.3;99.9
49901;DHT22;35789;48.414;12.768;2022-09-03T21:30:00;14.2;99.9
49901;DHT22;35789;48.414;12.768;2022-09-03T21:35:02;14.1;99.9
49901;DHT22;35789;48.414;12.768;2022-09-03T21:40:00;14.0;99.9
49901;DHT22;35789;48.414;12.768;2022-09-03T21:45:01;14.0;99.9
49901;DHT22;35789;48.414;12.768;2022-09-03T21:50:02;13.9;99.9
49901;DHT22;35789;48.414;12.768;2022-09-03T21:55:00;13.8;99.9
49901;DHT22;35789;48.414;12.768;2022-09-03T22:00:04;13.7;99.9
49901;DHT22;35789;48.414;12.768;2022-09-03T22:05:00;13.8;99.9
49901;DHT22;35789;48.414;12.768;2022-09-03T22:10:00;13.7;99.9
49901;DHT22;35789;48.414;12.768;2022-09-03T22:15:00;13.6;99.9
49901;DHT22;35789;48.414;12.768;2022-09-03T22:20:01;13.6;99.9
49901;DHT22;35789;48.414;12.768;2022-09-03T22:25:00;13.7;99.9
49901;DHT22;35789;48.414;12.768;2022-09-03T22:30:02;13.6;99.9
49901;DHT22;35789;48.414;12.768;2022-09-03T22:35:10;13.5;99.9
49901;DHT22;35789;48.414;12.768;2022-09-03T22:40:01;13.5;99.9
49901;DHT22;35789;48.414;12.768;2022-09-03T22:45:05;13.3;99.9
49901;DHT22;35789;48.414;12.768;2022-09-03T22:50:01;13.3;99.9
49901;DHT22;35789;48.414;12.768;2022-09-03T22:55:11;13.3;99.9
49901;DHT22;35789;48.414;12.768;2022-09-03T23:00:01;13.3;99.9
49901;DHT22;35789;48.414;12.768;2022-09-03T23:05:02;13.2;99.9
49901;DHT22;35789;48.414;12.768;2022-09-03T23:10:02;13.3;99.9
49901;DHT22;35789;48.414;12.768;2022-09-03T23:15:00;13.1;99.9
49901;DHT22;35789;48.414;12.768;2022-09-03T23:20:02;13.1;99.9
49901;DHT22;35789;48.414;12.768;2022-09-03T23:25:02;12.9;99.9
49901;DHT22;35789;48.414;12.768;2022-09-03T23:30:00;12.8;99.9
49901;DHT22;35789;48.414;12.768;2022-09-03T23:35:01;12.8;99.9
49901;DHT22;35789;48.414;12.768;2022-09-03T23:40:04;12.8;99.9
49901;DHT22;35789;48.414;12.768;2022-09-03T23:45:04;12.7;99.9
49901;DHT22;35789;48.414;12.768;2022-09-03T23:50:03;12.6;99.9
49901;DHT22;35789;48.414;12.768;2022-09-03T23:55:02;12.6;99.9
